sensor_id;sensor_type;location;lat;lon;timestamp;temperature;humidity
27645;DHT22;15054;57.152;-2.118;2022-07-29T00:01:07;14.10;99.90
27645;DHT22;15054;57.152;-2.118;2022-07-29T00:03:45;14.10;99.90
27645;DHT22;15054;57.152;-2.118;2022-07-29T00:06:13;14.10;99.90
27645;DHT22;15054;57.152;-2.118;2022-07-29T00:08:40;14.10;99.90
27645;DHT22;15054;57.152;-2.118;2022-07-29T00:11:07;14.10;99.90
27645;DHT22;15054;57.152;-2.118;2022-07-29T00:13:34;14.10;99.90
27645;DHT22;15054;57.152;-2.118;2022-07-29T00:16:01;14.00;99.90
27645;DHT22;15054;57.152;-2.118;2022-07-29T00:18:31;14.00;99.90
27645;DHT22;15054;57.152;-2.118;2022-07-29T00:20:58;14.00;99.90
27645;DHT22;15054;57.152;-2.118;2022-07-29T00:23:26;14.00;99.90
27645;DHT22;15054;57.152;-2.118;2022-07-29T00:25:54;14.00;99.90
27645;DHT22;15054;57.152;-2.118;2022-07-29T00:28:21;14.00;99.90
27645;DHT22;15054;57.152;-2.118;2022-07-29T00:30:48;14.00;99.90
27645;DHT22;15054;57.152;-2.118;2022-07-29T00:33:15;14.00;99.90
27645;DHT22;15054;57.152;-2.118;2022-07-29T00:35:43;14.00;99.90
27645;DHT22;15054;57.152;-2.118;2022-07-29T00:38:14;14.00;99.90
27645;DHT22;15054;57.152;-2.118;2022-07-29T00:40:42;13.90;99.90
27645;DHT22;15054;57.152;-2.118;2022-07-29T00:43:11;13.90;99.90
27645;DHT22;15054;57.152;-2.118;2022-07-29T00:45:39;13.90;99.90
27645;DHT22;15054;57.152;-2.118;2022-07-29T00:48:06;13.90;99.90
27645;DHT22;15054;57.152;-2.118;2022-07-29T00:50:35;13.90;99.90
27645;DHT22;15054;57.152;-2.118;2022-07-29T00:53:05;13.90;99.90
27645;DHT22;15054;57.152;-2.118;2022-07-29T00:55:33;13.80;99.90
27645;DHT22;15054;57.152;-2.118;2022-07-29T00:58:00;13.80;99.90
27645;DHT22;15054;57.152;-2.118;2022-07-29T01:00:28;13.80;99.90
27645;DHT22;15054;57.152;-2.118;2022-07-29T01:02:56;13.80;99.90
27645;DHT22;15054;57.152;-2.118;2022-07-29T01:05:25;13.80;99.90
27645;DHT22;15054;57.152;-2.118;2022-07-29T01:08:14;13.80;99.90
27645;DHT22;15054;57.152;-2.118;2022-07-29T01:10:44;13.80;99.90
27645;DHT22;15054;57.152;-2.118;2022-07-29T01:13:13;13.80;99.90
27645;DHT22;15054;57.152;-2.118;2022-07-29T01:15:48;13.80;99.90
27645;DHT22;15054;57.152;-2.118;2022-07-29T01:18:28;13.80;99.90
27645;DHT22;15054;57.152;-2.118;2022-07-29T01:29:21;13.80;99.90
27645;DHT22;15054;57.152;-2.118;2022-07-29T01:32:18;13.80;99.90
27645;DHT22;15054;57.152;-2.118;2022-07-29T01:34:58;13.80;99.90
27645;DHT22;15054;57.152;-2.118;2022-07-29T01:37:57;13.80;99.90
27645;DHT22;15054;57.152;-2.118;2022-07-29T01:43:09;13.80;99.90
27645;DHT22;15054;57.152;-2.118;2022-07-29T01:45:56;13.90;99.90
27645;DHT22;15054;57.152;-2.118;2022-07-29T01:56:28;13.90;99.90
27645;DHT22;15054;57.152;-2.118;2022-07-29T01:58:58;13.90;99.90
27645;DHT22;15054;57.152;-2.118;2022-07-29T02:01:27;13.90;99.90
27645;DHT22;15054;57.152;-2.118;2022-07-29T02:03:57;13.90;99.90
27645;DHT22;15054;57.152;-2.118;2022-07-29T02:06:26;13.80;99.90
27645;DHT22;15054;57.152;-2.118;2022-07-29T02:08:55;13.90;99.90
27645;DHT22;15054;57.152;-2.118;2022-07-29T02:11:24;13.90;99.90
27645;DHT22;15054;57.152;-2.118;2022-07-29T02:13:53;13.90;99.90
27645;DHT22;15054;57.152;-2.118;2022-07-29T02:16:22;13.90;99.90
27645;DHT22;15054;57.152;-2.118;2022-07-29T02:18:52;13.90;99.90
27645;DHT22;15054;57.152;-2.118;2022-07-29T02:21:24;13.90;99.90
27645;DHT22;15054;57.152;-2.118;2022-07-29T02:23:53;13.90;99.90
27645;DHT22;15054;57.152;-2.118;2022-07-29T02:26:23;13.80;99.90
27645;DHT22;15054;57.152;-2.118;2022-07-29T02:28:55;13.80;99.90
27645;DHT22;15054;57.152;-2.118;2022-07-29T02:31:26;13.80;99.90
27645;DHT22;15054;57.152;-2.118;2022-07-29T02:33:56;13.80;99.90
27645;DHT22;15054;57.152;-2.118;2022-07-29T02:36:24;13.80;99.90
27645;DHT22;15054;57.152;-2.118;2022-07-29T02:38:55;13.80;99.90
27645;DHT22;15054;57.152;-2.118;2022-07-29T02:41:29;13.80;99.90
27645;DHT22;15054;57.152;-2.118;2022-07-29T02:44:02;13.80;99.90
27645;DHT22;15054;57.152;-2.118;2022-07-29T02:46:36;13.80;99.90
27645;DHT22;15054;57.152;-2.118;2022-07-29T02:51:43;13.80;99.90
27645;DHT22;15054;57.152;-2.118;2022-07-29T02:54:22;13.80;99.90
27645;DHT22;15054;57.152;-2.118;2022-07-29T02:56:52;13.80;99.90
27645;DHT22;15054;57.152;-2.118;2022-07-29T02:59:24;13.80;99.90
27645;DHT22;15054;57.152;-2.118;2022-07-29T03:01:54;13.80;99.90
27645;DHT22;15054;57.152;-2.118;2022-07-29T03:04:24;13.80;99.90
27645;DHT22;15054;57.152;-2.118;2022-07-29T03:06:53;13.80;99.90
27645;DHT22;15054;57.152;-2.118;2022-07-29T03:09:21;13.80;99.90
27645;DHT22;15054;57.152;-2.118;2022-07-29T03:11:49;13.80;99.90
27645;DHT22;15054;57.152;-2.118;2022-07-29T03:14:18;13.80;99.90
27645;DHT22;15054;57.152;-2.118;2022-07-29T03:16:47;13.80;99.90
27645;DHT22;15054;57.152;-2.118;2022-07-29T03:19:15;13.80;99.90
27645;DHT22;15054;57.152;-2.118;2022-07-29T03:21:43;13.80;99.90
27645;DHT22;15054;57.152;-2.118;2022-07-29T03:24:10;13.80;99.90
27645;DHT22;15054;57.152;-2.118;2022-07-29T03:26:37;13.70;99.90
27645;DHT22;15054;57.152;-2.118;2022-07-29T03:29:04;13.80;99.90
27645;DHT22;15054;57.152;-2.118;2022-07-29T03:31:32;13.80;99.90
27645;DHT22;15054;57.152;-2.118;2022-07-29T03:34:00;13.80;99.90
27645;DHT22;15054;57.152;-2.118;2022-07-29T03:36:27;13.80;99.90
27645;DHT22;15054;57.152;-2.118;2022-07-29T03:38:54;13.80;99.90
27645;DHT22;15054;57.152;-2.118;2022-07-29T03:41:22;13.80;99.90
27645;DHT22;15054;57.152;-2.118;2022-07-29T03:43:51;13.80;99.90
27645;DHT22;15054;57.152;-2.118;2022-07-29T03:46:20;13.70;99.90
27645;DHT22;15054;57.152;-2.118;2022-07-29T03:48:53;13.70;99.90
27645;DHT22;15054;57.152;-2.118;2022-07-29T03:51:24;13.80;99.90
27645;DHT22;15054;57.152;-2.118;2022-07-29T03:54:01;13.70;99.90
27645;DHT22;15054;57.152;-2.118;2022-07-29T03:56:38;13.70;99.90
27645;DHT22;15054;57.152;-2.118;2022-07-29T03:59:07;13.80;99.90
27645;DHT22;15054;57.152;-2.118;2022-07-29T04:01:35;13.80;99.90
27645;DHT22;15054;57.152;-2.118;2022-07-29T04:04:03;13.80;99.90
27645;DHT22;15054;57.152;-2.118;2022-07-29T04:06:39;13.80;99.90
27645;DHT22;15054;57.152;-2.118;2022-07-29T04:09:07;13.70;99.90
27645;DHT22;15054;57.152;-2.118;2022-07-29T04:11:36;13.80;99.90
27645;DHT22;15054;57.152;-2.118;2022-07-29T04:14:24;13.80;99.90
27645;DHT22;15054;57.152;-2.118;2022-07-29T04:16:52;13.80;99.90
27645;DHT22;15054;57.152;-2.118;2022-07-29T04:19:19;13.70;99.90
27645;DHT22;15054;57.152;-2.118;2022-07-29T04:21:46;13.70;99.90
27645;DHT22;15054;57.152;-2.118;2022-07-29T04:24:14;13.70;99.90
27645;DHT22;15054;57.152;-2.118;2022-07-29T04:26:42;13.70;99.90
27645;DHT22;15054;57.152;-2.118;2022-07-29T04:29:09;13.70;99.90
27645;DHT22;15054;57.152;-2.118;2022-07-29T04:31:36;13.70;99.90
27645;DHT22;15054;57.152;-2.118;2022-07-29T04:34:03;13.70;99.90
27645;DHT22;15054;57.152;-2.118;2022-07-29T04:36:30;13.70;99.90
27645;DHT22;15054;57.152;-2.118;2022-07-29T04:38:58;13.70;99.90
27645;DHT22;15054;57.152;-2.118;2022-07-29T04:41:25;13.70;99.90
27645;DHT22;15054;57.152;-2.118;2022-07-29T04:43:59;13.80;99.90
27645;DHT22;15054;57.152;-2.118;2022-07-29T04:46:34;13.80;99.90
27645;DHT22;15054;57.152;-2.118;2022-07-29T04:49:02;13.80;99.90
27645;DHT22;15054;57.152;-2.118;2022-07-29T04:51:30;13.70;99.90
27645;DHT22;15054;57.152;-2.118;2022-07-29T04:53:57;13.80;99.90
27645;DHT22;15054;57.152;-2.118;2022-07-29T04:56:24;13.80;99.90
27645;DHT22;15054;57.152;-2.118;2022-07-29T04:58:51;13.80;99.90
27645;DHT22;15054;57.152;-2.118;2022-07-29T05:01:18;13.80;99.90
27645;DHT22;15054;57.152;-2.118;2022-07-29T05:03:46;13.80;99.90
27645;DHT22;15054;57.152;-2.118;2022-07-29T05:06:13;13.80;99.90
27645;DHT22;15054;57.152;-2.118;2022-07-29T05:08:40;13.80;99.90
27645;DHT22;15054;57.152;-2.118;2022-07-29T05:11:07;13.80;99.90
27645;DHT22;15054;57.152;-2.118;2022-07-29T05:13:38;13.90;99.90
27645;DHT22;15054;57.152;-2.118;2022-07-29T05:16:13;13.90;99.90
27645;DHT22;15054;57.152;-2.118;2022-07-29T05:18:41;13.80;99.90
27645;DHT22;15054;57.152;-2.118;2022-07-29T05:21:09;13.90;99.90
27645;DHT22;15054;57.152;-2.118;2022-07-29T05:23:36;13.90;99.90
27645;DHT22;15054;57.152;-2.118;2022-07-29T05:26:03;13.90;99.90
27645;DHT22;15054;57.152;-2.118;2022-07-29T05:28:33;13.90;99.90
27645;DHT22;15054;57.152;-2.118;2022-07-29T05:31:01;13.90;99.90
27645;DHT22;15054;57.152;-2.118;2022-07-29T05:33:29;13.90;99.90
27645;DHT22;15054;57.152;-2.118;2022-07-29T05:36:04;13.90;99.90
27645;DHT22;15054;57.152;-2.118;2022-07-29T05:38:33;13.90;99.90
27645;DHT22;15054;57.152;-2.118;2022-07-29T05:41:00;13.90;99.90
27645;DHT22;15054;57.152;-2.118;2022-07-29T05:43:28;14.00;99.90
27645;DHT22;15054;57.152;-2.118;2022-07-29T05:45:55;13.90;99.90
27645;DHT22;15054;57.152;-2.118;2022-07-29T05:48:23;14.00;99.90
27645;DHT22;15054;57.152;-2.118;2022-07-29T05:50:51;14.00;99.90
27645;DHT22;15054;57.152;-2.118;2022-07-29T05:53:18;14.00;99.90
27645;DHT22;15054;57.152;-2.118;2022-07-29T05:55:47;14.00;99.90
27645;DHT22;15054;57.152;-2.118;2022-07-29T05:58:14;14.10;99.90
27645;DHT22;15054;57.152;-2.118;2022-07-29T06:00:41;14.10;99.90
27645;DHT22;15054;57.152;-2.118;2022-07-29T06:03:09;14.10;99.90
27645;DHT22;15054;57.152;-2.118;2022-07-29T06:05:36;14.10;99.90
27645;DHT22;15054;57.152;-2.118;2022-07-29T06:08:03;14.20;99.90
27645;DHT22;15054;57.152;-2.118;2022-07-29T06:10:35;14.20;99.90
27645;DHT22;15054;57.152;-2.118;2022-07-29T06:13:02;14.20;99.90
27645;DHT22;15054;57.152;-2.118;2022-07-29T06:15:29;14.20;99.90
27645;DHT22;15054;57.152;-2.118;2022-07-29T06:17:56;14.30;99.90
27645;DHT22;15054;57.152;-2.118;2022-07-29T06:20:30;14.30;99.90
27645;DHT22;15054;57.152;-2.118;2022-07-29T06:22:59;14.30;99.90
27645;DHT22;15054;57.152;-2.118;2022-07-29T06:25:27;14.30;99.90
27645;DHT22;15054;57.152;-2.118;2022-07-29T06:27:57;14.40;99.90
27645;DHT22;15054;57.152;-2.118;2022-07-29T06:30:25;14.50;99.90
27645;DHT22;15054;57.152;-2.118;2022-07-29T06:32:52;14.50;99.90
27645;DHT22;15054;57.152;-2.118;2022-07-29T06:35:19;14.50;99.90
27645;DHT22;15054;57.152;-2.118;2022-07-29T06:38:06;14.50;99.90
27645;DHT22;15054;57.152;-2.118;2022-07-29T06:40:53;14.60;99.90
27645;DHT22;15054;57.152;-2.118;2022-07-29T06:43:38;14.60;99.90
27645;DHT22;15054;57.152;-2.118;2022-07-29T06:46:19;14.70;99.90
27645;DHT22;15054;57.152;-2.118;2022-07-29T06:48:47;14.60;99.90
27645;DHT22;15054;57.152;-2.118;2022-07-29T06:51:17;14.70;99.90
27645;DHT22;15054;57.152;-2.118;2022-07-29T06:53:52;14.60;99.90
27645;DHT22;15054;57.152;-2.118;2022-07-29T06:56:28;14.60;99.90
27645;DHT22;15054;57.152;-2.118;2022-07-29T06:58:55;14.60;99.90
27645;DHT22;15054;57.152;-2.118;2022-07-29T07:01:22;14.60;99.90
27645;DHT22;15054;57.152;-2.118;2022-07-29T07:03:50;14.60;99.90
27645;DHT22;15054;57.152;-2.118;2022-07-29T07:06:18;14.60;99.90
27645;DHT22;15054;57.152;-2.118;2022-07-29T07:08:46;14.60;99.90
27645;DHT22;15054;57.152;-2.118;2022-07-29T07:11:13;14.70;99.90
27645;DHT22;15054;57.152;-2.118;2022-07-29T07:13:40;14.70;99.90
27645;DHT22;15054;57.152;-2.118;2022-07-29T07:16:07;14.70;99.90
27645;DHT22;15054;57.152;-2.118;2022-07-29T07:18:34;14.80;99.90
27645;DHT22;15054;57.152;-2.118;2022-07-29T07:21:02;14.80;99.90
27645;DHT22;15054;57.152;-2.118;2022-07-29T07:23:29;14.80;99.90
27645;DHT22;15054;57.152;-2.118;2022-07-29T07:25:56;14.80;99.90
27645;DHT22;15054;57.152;-2.118;2022-07-29T07:28:23;14.90;99.90
27645;DHT22;15054;57.152;-2.118;2022-07-29T07:30:51;14.90;99.90
27645;DHT22;15054;57.152;-2.118;2022-07-29T07:33:19;15.00;99.90
27645;DHT22;15054;57.152;-2.118;2022-07-29T07:35:46;15.00;99.90
27645;DHT22;15054;57.152;-2.118;2022-07-29T07:38:14;15.10;99.90
27645;DHT22;15054;57.152;-2.118;2022-07-29T07:40:41;15.20;99.90
27645;DHT22;15054;57.152;-2.118;2022-07-29T07:43:08;15.30;99.90
27645;DHT22;15054;57.152;-2.118;2022-07-29T07:45:35;15.40;99.90
27645;DHT22;15054;57.152;-2.118;2022-07-29T07:48:04;15.50;99.90
27645;DHT22;15054;57.152;-2.118;2022-07-29T07:50:32;15.50;99.90
27645;DHT22;15054;57.152;-2.118;2022-07-29T07:52:59;15.60;99.90
27645;DHT22;15054;57.152;-2.118;2022-07-29T07:55:29;15.70;99.90
27645;DHT22;15054;57.152;-2.118;2022-07-29T07:58:16;15.80;99.90
27645;DHT22;15054;57.152;-2.118;2022-07-29T08:00:43;16.00;99.90
27645;DHT22;15054;57.152;-2.118;2022-07-29T08:03:10;16.20;99.90
27645;DHT22;15054;57.152;-2.118;2022-07-29T08:05:43;16.30;99.90
27645;DHT22;15054;57.152;-2.118;2022-07-29T08:08:10;16.50;99.90
27645;DHT22;15054;57.152;-2.118;2022-07-29T08:10:37;16.50;99.90
27645;DHT22;15054;57.152;-2.118;2022-07-29T08:13:20;16.50;99.90
27645;DHT22;15054;57.152;-2.118;2022-07-29T08:15:48;16.70;99.90
27645;DHT22;15054;57.152;-2.118;2022-07-29T08:18:25;16.80;99.90
27645;DHT22;15054;57.152;-2.118;2022-07-29T08:20:53;17.10;99.90
27645;DHT22;15054;57.152;-2.118;2022-07-29T08:23:20;17.30;99.90
27645;DHT22;15054;57.152;-2.118;2022-07-29T08:25:48;17.50;99.90
27645;DHT22;15054;57.152;-2.118;2022-07-29T08:28:17;17.80;99.90
27645;DHT22;15054;57.152;-2.118;2022-07-29T08:30:45;18.10;99.90
27645;DHT22;15054;57.152;-2.118;2022-07-29T08:33:12;18.50;99.90
27645;DHT22;15054;57.152;-2.118;2022-07-29T08:35:40;18.80;99.90
27645;DHT22;15054;57.152;-2.118;2022-07-29T08:38:07;18.90;99.90
27645;DHT22;15054;57.152;-2.118;2022-07-29T08:40:34;19.30;99.90
27645;DHT22;15054;57.152;-2.118;2022-07-29T08:43:07;19.20;99.90
27645;DHT22;15054;57.152;-2.118;2022-07-29T08:45:45;19.10;99.90
27645;DHT22;15054;57.152;-2.118;2022-07-29T08:48:16;19.30;99.90
27645;DHT22;15054;57.152;-2.118;2022-07-29T08:50:44;19.30;99.90
27645;DHT22;15054;57.152;-2.118;2022-07-29T08:53:14;19.50;99.90
27645;DHT22;15054;57.152;-2.118;2022-07-29T08:55:47;19.30;99.90
27645;DHT22;15054;57.152;-2.118;2022-07-29T08:58:16;19.30;99.90
27645;DHT22;15054;57.152;-2.118;2022-07-29T09:00:46;19.30;99.90
27645;DHT22;15054;57.152;-2.118;2022-07-29T09:03:18;19.60;99.90
27645;DHT22;15054;57.152;-2.118;2022-07-29T09:05:47;19.40;99.90
27645;DHT22;15054;57.152;-2.118;2022-07-29T09:08:15;19.30;99.90
27645;DHT22;15054;57.152;-2.118;2022-07-29T09:10:44;19.60;99.90
27645;DHT22;15054;57.152;-2.118;2022-07-29T09:13:11;19.70;99.90
27645;DHT22;15054;57.152;-2.118;2022-07-29T09:15:38;19.80;99.90
27645;DHT22;15054;57.152;-2.118;2022-07-29T09:18:05;19.90;99.90
27645;DHT22;15054;57.152;-2.118;2022-07-29T09:20:33;19.70;99.90
27645;DHT22;15054;57.152;-2.118;2022-07-29T09:23:19;19.70;99.90
27645;DHT22;15054;57.152;-2.118;2022-07-29T09:25:50;19.80;99.90
27645;DHT22;15054;57.152;-2.118;2022-07-29T09:28:17;19.90;99.90
27645;DHT22;15054;57.152;-2.118;2022-07-29T09:30:56;19.60;99.90
27645;DHT22;15054;57.152;-2.118;2022-07-29T09:33:25;19.60;99.90
27645;DHT22;15054;57.152;-2.118;2022-07-29T09:36:08;19.60;99.90
27645;DHT22;15054;57.152;-2.118;2022-07-29T09:38:36;19.80;99.90
27645;DHT22;15054;57.152;-2.118;2022-07-29T09:41:05;19.60;99.90
27645;DHT22;15054;57.152;-2.118;2022-07-29T09:43:33;19.80;99.90
27645;DHT22;15054;57.152;-2.118;2022-07-29T09:46:11;19.80;99.90
27645;DHT22;15054;57.152;-2.118;2022-07-29T09:48:39;19.80;99.90
27645;DHT22;15054;57.152;-2.118;2022-07-29T09:51:19;19.70;99.90
27645;DHT22;15054;57.152;-2.118;2022-07-29T09:53:55;19.60;99.90
27645;DHT22;15054;57.152;-2.118;2022-07-29T09:56:42;19.80;99.90
27645;DHT22;15054;57.152;-2.118;2022-07-29T09:59:09;19.50;99.90
27645;DHT22;15054;57.152;-2.118;2022-07-29T10:01:38;19.50;99.90
27645;DHT22;15054;57.152;-2.118;2022-07-29T10:04:05;20.10;99.90
27645;DHT22;15054;57.152;-2.118;2022-07-29T10:06:33;20.20;99.90
27645;DHT22;15054;57.152;-2.118;2022-07-29T10:09:08;20.30;99.90
27645;DHT22;15054;57.152;-2.118;2022-07-29T10:11:36;20.60;99.90
27645;DHT22;15054;57.152;-2.118;2022-07-29T10:14:16;20.80;99.90
27645;DHT22;15054;57.152;-2.118;2022-07-29T10:16:44;21.00;99.90
27645;DHT22;15054;57.152;-2.118;2022-07-29T10:19:12;21.20;99.90
27645;DHT22;15054;57.152;-2.118;2022-07-29T10:21:44;21.20;99.90
27645;DHT22;15054;57.152;-2.118;2022-07-29T10:24:12;21.20;99.90
27645;DHT22;15054;57.152;-2.118;2022-07-29T10:26:42;21.40;99.90
27645;DHT22;15054;57.152;-2.118;2022-07-29T10:29:11;21.30;99.90
27645;DHT22;15054;57.152;-2.118;2022-07-29T10:35:33;21.20;99.90
27645;DHT22;15054;57.152;-2.118;2022-07-29T10:46:35;21.10;99.90
27645;DHT22;15054;57.152;-2.118;2022-07-29T10:54:37;21.10;99.90
27645;DHT22;15054;57.152;-2.118;2022-07-29T10:59:41;20.20;99.90
27645;DHT22;15054;57.152;-2.118;2022-07-29T11:05:19;20.40;99.90
27645;DHT22;15054;57.152;-2.118;2022-07-29T11:10:47;20.50;99.90
27645;DHT22;15054;57.152;-2.118;2022-07-29T11:16:15;20.60;99.90
27645;DHT22;15054;57.152;-2.118;2022-07-29T11:21:58;20.40;99.90
27645;DHT22;15054;57.152;-2.118;2022-07-29T11:24:29;20.60;99.90
27645;DHT22;15054;57.152;-2.118;2022-07-29T11:27:18;20.70;99.90
27645;DHT22;15054;57.152;-2.118;2022-07-29T11:29:58;20.60;99.90
27645;DHT22;15054;57.152;-2.118;2022-07-29T11:32:41;20.10;99.90
27645;DHT22;15054;57.152;-2.118;2022-07-29T11:35:14;20.00;99.90
27645;DHT22;15054;57.152;-2.118;2022-07-29T11:37:45;20.10;99.90
27645;DHT22;15054;57.152;-2.118;2022-07-29T11:40:21;20.70;99.90
27645;DHT22;15054;57.152;-2.118;2022-07-29T11:42:49;21.10;99.90
27645;DHT22;15054;57.152;-2.118;2022-07-29T11:45:23;21.20;99.90
27645;DHT22;15054;57.152;-2.118;2022-07-29T11:48:17;21.30;99.90
27645;DHT22;15054;57.152;-2.118;2022-07-29T11:50:56;21.30;99.90
27645;DHT22;15054;57.152;-2.118;2022-07-29T11:53:24;21.30;99.90
27645;DHT22;15054;57.152;-2.118;2022-07-29T11:55:59;21.20;99.90
27645;DHT22;15054;57.152;-2.118;2022-07-29T11:58:27;21.20;99.90
27645;DHT22;15054;57.152;-2.118;2022-07-29T12:00:55;21.10;99.90
27645;DHT22;15054;57.152;-2.118;2022-07-29T12:03:26;21.30;99.90
27645;DHT22;15054;57.152;-2.118;2022-07-29T12:06:02;21.60;99.90
27645;DHT22;15054;57.152;-2.118;2022-07-29T12:08:29;21.60;99.90
27645;DHT22;15054;57.152;-2.118;2022-07-29T12:10:57;21.60;99.90
27645;DHT22;15054;57.152;-2.118;2022-07-29T12:13:24;21.30;99.90
27645;DHT22;15054;57.152;-2.118;2022-07-29T12:16:04;21.60;99.90
27645;DHT22;15054;57.152;-2.118;2022-07-29T12:18:31;21.10;99.90
27645;DHT22;15054;57.152;-2.118;2022-07-29T12:21:00;20.90;99.90
27645;DHT22;15054;57.152;-2.118;2022-07-29T12:23:34;21.30;99.90
27645;DHT22;15054;57.152;-2.118;2022-07-29T12:26:05;21.00;99.90
27645;DHT22;15054;57.152;-2.118;2022-07-29T12:28:51;21.30;99.90
27645;DHT22;15054;57.152;-2.118;2022-07-29T12:31:20;21.50;99.90
27645;DHT22;15054;57.152;-2.118;2022-07-29T12:34:07;22.00;99.90
27645;DHT22;15054;57.152;-2.118;2022-07-29T12:36:35;22.20;99.90
27645;DHT22;15054;57.152;-2.118;2022-07-29T12:39:04;22.20;99.90
27645;DHT22;15054;57.152;-2.118;2022-07-29T12:41:31;22.30;99.90
27645;DHT22;15054;57.152;-2.118;2022-07-29T12:43:59;21.40;99.90
27645;DHT22;15054;57.152;-2.118;2022-07-29T12:46:26;21.30;99.90
27645;DHT22;15054;57.152;-2.118;2022-07-29T12:48:54;21.00;99.90
27645;DHT22;15054;57.152;-2.118;2022-07-29T12:51:48;21.20;99.90
27645;DHT22;15054;57.152;-2.118;2022-07-29T12:54:15;21.50;99.90
27645;DHT22;15054;57.152;-2.118;2022-07-29T12:56:44;21.50;99.90
27645;DHT22;15054;57.152;-2.118;2022-07-29T12:59:19;21.70;99.90
27645;DHT22;15054;57.152;-2.118;2022-07-29T13:01:51;21.70;99.90
27645;DHT22;15054;57.152;-2.118;2022-07-29T13:04:29;21.70;99.90
27645;DHT22;15054;57.152;-2.118;2022-07-29T13:07:05;21.60;99.90
27645;DHT22;15054;57.152;-2.118;2022-07-29T13:09:43;21.30;99.90
27645;DHT22;15054;57.152;-2.118;2022-07-29T13:12:13;21.40;99.90
27645;DHT22;15054;57.152;-2.118;2022-07-29T13:14:42;21.20;99.90
27645;DHT22;15054;57.152;-2.118;2022-07-29T13:17:20;21.60;99.90
27645;DHT22;15054;57.152;-2.118;2022-07-29T13:19:52;21.80;99.90
27645;DHT22;15054;57.152;-2.118;2022-07-29T13:22:22;21.30;99.90
27645;DHT22;15054;57.152;-2.118;2022-07-29T13:24:56;21.10;99.90
27645;DHT22;15054;57.152;-2.118;2022-07-29T13:27:26;20.90;99.90
27645;DHT22;15054;57.152;-2.118;2022-07-29T13:29:54;21.20;99.90
27645;DHT22;15054;57.152;-2.118;2022-07-29T13:32:25;20.90;99.90
27645;DHT22;15054;57.152;-2.118;2022-07-29T13:35:00;20.40;99.90
27645;DHT22;15054;57.152;-2.118;2022-07-29T13:37:32;20.10;99.90
27645;DHT22;15054;57.152;-2.118;2022-07-29T13:40:02;20.10;99.90
27645;DHT22;15054;57.152;-2.118;2022-07-29T13:42:31;20.20;99.90
27645;DHT22;15054;57.152;-2.118;2022-07-29T13:44:58;20.20;99.90
27645;DHT22;15054;57.152;-2.118;2022-07-29T13:47:26;20.20;99.90
27645;DHT22;15054;57.152;-2.118;2022-07-29T13:50:00;20.00;99.90
27645;DHT22;15054;57.152;-2.118;2022-07-29T13:52:28;20.00;99.90
27645;DHT22;15054;57.152;-2.118;2022-07-29T13:54:56;20.10;99.90
27645;DHT22;15054;57.152;-2.118;2022-07-29T13:57:23;20.00;99.90
27645;DHT22;15054;57.152;-2.118;2022-07-29T13:59:50;19.80;99.90
27645;DHT22;15054;57.152;-2.118;2022-07-29T14:02:21;20.00;99.90
27645;DHT22;15054;57.152;-2.118;2022-07-29T14:04:52;20.20;99.90
27645;DHT22;15054;57.152;-2.118;2022-07-29T14:07:21;19.90;99.90
27645;DHT22;15054;57.152;-2.118;2022-07-29T14:09:50;19.60;99.90
27645;DHT22;15054;57.152;-2.118;2022-07-29T14:12:17;20.00;99.90
27645;DHT22;15054;57.152;-2.118;2022-07-29T14:14:44;20.10;99.90
27645;DHT22;15054;57.152;-2.118;2022-07-29T14:17:13;20.20;99.90
27645;DHT22;15054;57.152;-2.118;2022-07-29T14:19:40;20.50;99.90
27645;DHT22;15054;57.152;-2.118;2022-07-29T14:22:09;20.90;99.90
27645;DHT22;15054;57.152;-2.118;2022-07-29T14:24:37;21.40;99.90
27645;DHT22;15054;57.152;-2.118;2022-07-29T14:27:05;21.60;99.90
27645;DHT22;15054;57.152;-2.118;2022-07-29T14:29:33;21.10;99.90
27645;DHT22;15054;57.152;-2.118;2022-07-29T14:32:08;20.30;99.90
27645;DHT22;15054;57.152;-2.118;2022-07-29T14:34:38;19.80;99.90
27645;DHT22;15054;57.152;-2.118;2022-07-29T14:37:05;20.30;99.90
27645;DHT22;15054;57.152;-2.118;2022-07-29T14:39:34;20.00;99.90
27645;DHT22;15054;57.152;-2.118;2022-07-29T14:42:10;19.60;99.90
27645;DHT22;15054;57.152;-2.118;2022-07-29T14:44:41;19.40;99.90
27645;DHT22;15054;57.152;-2.118;2022-07-29T14:47:10;19.30;99.90
27645;DHT22;15054;57.152;-2.118;2022-07-29T14:49:37;19.30;99.90
27645;DHT22;15054;57.152;-2.118;2022-07-29T14:52:04;19.60;99.90
27645;DHT22;15054;57.152;-2.118;2022-07-29T14:54:32;19.30;99.90
27645;DHT22;15054;57.152;-2.118;2022-07-29T14:57:00;19.40;99.90
27645;DHT22;15054;57.152;-2.118;2022-07-29T14:59:27;19.00;99.90
27645;DHT22;15054;57.152;-2.118;2022-07-29T15:01:54;18.90;99.90
27645;DHT22;15054;57.152;-2.118;2022-07-29T15:04:22;18.60;99.90
27645;DHT22;15054;57.152;-2.118;2022-07-29T15:06:49;18.50;99.90
27645;DHT22;15054;57.152;-2.118;2022-07-29T15:09:17;18.60;99.90
27645;DHT22;15054;57.152;-2.118;2022-07-29T15:11:45;18.60;99.90
27645;DHT22;15054;57.152;-2.118;2022-07-29T15:14:12;18.70;99.90
27645;DHT22;15054;57.152;-2.118;2022-07-29T15:16:41;18.60;99.90
27645;DHT22;15054;57.152;-2.118;2022-07-29T15:19:12;18.70;99.90
27645;DHT22;15054;57.152;-2.118;2022-07-29T15:21:40;18.60;99.90
27645;DHT22;15054;57.152;-2.118;2022-07-29T15:24:18;18.60;99.90
27645;DHT22;15054;57.152;-2.118;2022-07-29T15:26:47;18.70;99.90
27645;DHT22;15054;57.152;-2.118;2022-07-29T15:29:15;18.60;99.90
27645;DHT22;15054;57.152;-2.118;2022-07-29T15:31:42;18.60;99.90
27645;DHT22;15054;57.152;-2.118;2022-07-29T15:34:10;18.70;99.90
27645;DHT22;15054;57.152;-2.118;2022-07-29T15:36:37;18.80;99.90
27645;DHT22;15054;57.152;-2.118;2022-07-29T15:39:21;18.80;99.90
27645;DHT22;15054;57.152;-2.118;2022-07-29T15:41:49;18.60;99.90
27645;DHT22;15054;57.152;-2.118;2022-07-29T15:44:18;18.50;99.90
27645;DHT22;15054;57.152;-2.118;2022-07-29T15:46:47;18.50;99.90
27645;DHT22;15054;57.152;-2.118;2022-07-29T15:49:35;18.50;99.90
27645;DHT22;15054;57.152;-2.118;2022-07-29T15:52:19;18.30;99.90
27645;DHT22;15054;57.152;-2.118;2022-07-29T15:54:54;18.30;99.90
27645;DHT22;15054;57.152;-2.118;2022-07-29T15:57:22;18.20;99.90
27645;DHT22;15054;57.152;-2.118;2022-07-29T15:59:49;18.10;99.90
27645;DHT22;15054;57.152;-2.118;2022-07-29T16:02:19;18.00;99.90
27645;DHT22;15054;57.152;-2.118;2022-07-29T16:04:46;17.90;99.90
27645;DHT22;15054;57.152;-2.118;2022-07-29T16:07:14;17.80;99.90
27645;DHT22;15054;57.152;-2.118;2022-07-29T16:09:43;17.90;99.90
27645;DHT22;15054;57.152;-2.118;2022-07-29T16:12:18;17.80;99.90
27645;DHT22;15054;57.152;-2.118;2022-07-29T16:14:45;17.90;99.90
27645;DHT22;15054;57.152;-2.118;2022-07-29T16:17:15;17.80;99.90
27645;DHT22;15054;57.152;-2.118;2022-07-29T16:19:44;17.80;99.90
27645;DHT22;15054;57.152;-2.118;2022-07-29T16:22:11;17.70;99.90
27645;DHT22;15054;57.152;-2.118;2022-07-29T16:24:40;17.70;99.90
27645;DHT22;15054;57.152;-2.118;2022-07-29T16:27:10;17.60;99.90
27645;DHT22;15054;57.152;-2.118;2022-07-29T16:29:40;17.50;99.90